Crawford, Maine
Current Conditions -  °F | °C
As of 5:15 PM on Saturday 20 Dec 2014 (Local Time) from KBHB Reporting Station
Overcast Overcast  
Wind Chill: -3°   Ceiling: 2000
Heat Index: -3°   Visibility: 10mi
Dew Point: -5°   Wind: 3mph
Humidity: 86%   Direction: 320°NW
Pressure: 30.34"   Gusts: NA
Location:  45.0659°N, 67.4987°W
Report Text: KBHB 202215Z AUTO 32003KT 10SM OVC020 M03/M05 A3034 RMK AO1
Loading
Personal Weather Stations






























Interactive Weather Map New forecast layout! Learn more

10-Day Weather Forecast

Advertisements
Track Severe Weather on mobile